TimePST,TemperatureF,Dew PointF,Humidity,Sea Level PressureIn,VisibilityMPH,Wind Direction,Wind SpeedMPH,Gust SpeedMPH,PrecipitationIn,Events,Conditions,WindDirDegrees,DateUTC
12:53 AM,34.0,28.0,79,30.17,10.0,Calm,Calm,-,N/A,,Overcast,0,2013-03-09 08:53:00
1:53 AM,34.0,28.9,82,30.18,10.0,Calm,Calm,-,N/A,,Mostly Cloudy,0,2013-03-09 09:53:00
2:53 AM,30.0,27.0,88,30.19,10.0,SSW,4.6,-,N/A,,Clear,210,2013-03-09 10:53:00
3:53 AM,30.0,27.0,88,30.20,10.0,SW,3.5,-,N/A,,Clear,220,2013-03-09 11:53:00
4:53 AM,27.0,24.1,89,30.23,10.0,Calm,Calm,-,N/A,,Clear,0,2013-03-09 12:53:00
5:53 AM,28.9,26.1,89,30.25,10.0,SW,3.5,-,N/A,Fog,Partly Cloudy,220,2013-03-09 13:53:00
6:53 AM,28.9,27.0,92,30.27,10.0,Calm,Calm,-,N/A,Fog,Partly Cloudy,0,2013-03-09 14:53:00
7:53 AM,33.1,28.9,85,30.29,10.0,Calm,Calm,-,N/A,Fog,Partly Cloudy,0,2013-03-09 15:53:00
8:53 AM,36.0,30.9,82,30.31,10.0,Calm,Calm,-,N/A,Fog,Partly Cloudy,0,2013-03-09 16:53:00
9:53 AM,41.0,32.0,70,30.32,10.0,Calm,Calm,-,N/A,Fog,Scattered Clouds,0,2013-03-09 17:53:00
10:53 AM,43.0,28.9,58,30.33,10.0,Calm,Calm,-,N/A,Fog,Scattered Clouds,0,2013-03-09 18:53:00
11:53 AM,45.0,28.0,52,30.33,10.0,Calm,Calm,-,N/A,,Mostly Cloudy,0,2013-03-09 19:53:00
12:53 PM,46.9,30.0,52,30.34,10.0,NE,6.9,-,N/A,,Mostly Cloudy,50,2013-03-09 20:53:00
1:53 PM,48.9,25.0,39,30.33,10.0,WNW,5.8,-,N/A,,Mostly Cloudy,290,2013-03-09 21:53:00
2:53 PM,50.0,25.0,38,30.35,10.0,West,13.8,-,N/A,,Mostly Cloudy,280,2013-03-09 22:53:00
3:53 PM,50.0,27.0,41,30.35,10.0,West,3.5,-,N/A,,Mostly Cloudy,270,2013-03-09 23:53:00
4:53 PM,48.9,26.1,41,30.36,10.0,WSW,10.4,-,N/A,,Scattered Clouds,240,2013-03-10 00:53:00
5:53 PM,44.1,30.0,58,30.38,10.0,SW,8.1,-,N/A,,Scattered Clouds,230,2013-03-10 01:53:00
6:53 PM,42.1,28.9,60,30.39,10.0,SSW,6.9,-,N/A,,Partly Cloudy,210,2013-03-10 02:53:00
7:53 PM,42.1,30.9,65,30.40,10.0,SSW,9.2,-,N/A,,Partly Cloudy,210,2013-03-10 03:53:00
8:53 PM,39.0,30.9,73,30.42,10.0,SSW,5.8,-,N/A,,Partly Cloudy,210,2013-03-10 04:53:00
9:53 PM,37.9,30.0,73,30.42,10.0,SSW,5.8,-,N/A,,Clear,200,2013-03-10 05:53:00
10:53 PM,37.9,30.0,73,30.41,10.0,South,4.6,-,N/A,,Partly Cloudy,190,2013-03-10 06:53:00
11:53 PM,35.1,28.9,78,30.40,10.0,SSE,6.9,-,N/A,,Clear,160,2013-03-10 07:53:00